Time;durP1;ratioP1;P1;durP2;ratioP2;P2;SDS_P1;SDS_P2;PMS_P1;PMS_P2;Temp;Humidity;BMP_temperature;BMP_pressure;BME280_temperature;BME280_humidity;BME280_pressure;Samples;Min_cycle;Max_cycle;Signal;HPM_P1;HPM_P2
2023/07/02 00:02:04;;;;;;;;;;;21.20;91.60;;;;;;5117481;28;20339;-64
2023/07/02 00:04:30;;;;;;;;;;;21.10;91.70;;;;;;5117386;28;20362;-63
2023/07/02 00:06:55;;;;;;;;;;;21.10;91.90;;;;;;5117176;28;20045;-63
2023/07/02 00:09:21;;;;;;;;;;;21.10;91.60;;;;;;5117228;28;19991;-63
2023/07/02 00:11:46;;;;;;;;;;;21.10;91.90;;;;;;5117290;28;19989;-64
2023/07/02 00:14:12;;;;;;;;;;;21.20;91.80;;;;;;5117024;28;20350;-63
2023/07/02 00:16:39;;;;;;;;;;;21.20;91.40;;;;;;5116927;28;20061;-63
2023/07/02 00:19:05;;;;;;;;;;;21.20;91.60;;;;;;5116829;28;19985;-62
2023/07/02 00:21:33;;;;;;;;;;;21.20;91.80;;;;;;5116890;28;20088;-63
2023/07/02 00:23:59;;;;;;;;;;;21.10;92.10;;;;;;5116914;28;20432;-64
2023/07/02 00:26:25;;;;;;;;;;;21.20;91.90;;;;;;5116627;28;19985;-63
2023/07/02 00:28:54;;;;;;;;;;;21.20;91.90;;;;;;5116474;28;20438;-62
2023/07/02 00:31:20;;;;;;;;;;;21.30;91.90;;;;;;5116753;28;19985;-62
2023/07/02 00:33:45;;;;;;;;;;;21.30;92.10;;;;;;5116510;28;20030;-64
2023/07/02 00:36:14;;;;;;;;;;;21.40;91.90;;;;;;5116628;28;20443;-64
2023/07/02 00:38:44;;;;;;;;;;;21.40;91.70;;;;;;5116632;28;19987;-64
2023/07/02 00:41:10;;;;;;;;;;;21.50;91.80;;;;;;5116426;28;19992;-65
2023/07/02 00:43:35;;;;;;;;;;;21.40;91.80;;;;;;5116165;28;19988;-63
2023/07/02 00:46:02;;;;;;;;;;;21.40;92.20;;;;;;5116224;28;20368;-62
2023/07/02 00:48:28;;;;;;;;;;;21.30;92.40;;;;;;5116306;28;20024;-64
2023/07/02 00:50:54;;;;;;;;;;;21.20;92.50;;;;;;5116306;28;20032;-62
2023/07/02 00:53:19;;;;;;;;;;;21.30;92.30;;;;;;5116477;28;19992;-62
2023/07/02 00:55:45;;;;;;;;;;;21.30;92.20;;;;;;5116114;28;20409;-64
2023/07/02 00:58:10;;;;;;;;;;;21.30;92.10;;;;;;5115888;28;19992;-63
2023/07/02 01:00:36;;;;;;;;;;;21.40;92.40;;;;;;5116366;28;20076;-65
2023/07/02 01:03:02;;;;;;;;;;;21.40;92.40;;;;;;5115783;28;20079;-62
2023/07/02 01:05:35;;;;;;;;;;;21.40;92.90;;;;;;5115951;28;20451;-63
2023/07/02 01:08:11;;;;;;;;;;;21.30;92.50;;;;;;5115963;28;19988;-63
2023/07/02 01:10:37;;;;;;;;;;;21.30;92.50;;;;;;5115811;28;19989;-63
2023/07/02 01:13:09;;;;;;;;;;;21.20;92.90;;;;;;5115692;28;19992;-64
2023/07/02 01:15:35;;;;;;;;;;;21.20;93.20;;;;;;5115771;28;20515;-64
2023/07/02 01:18:03;;;;;;;;;;;21.10;93.40;;;;;;5115730;28;20016;-63
2023/07/02 01:20:30;;;;;;;;;;;21.10;93.00;;;;;;5116005;28;19989;-62
2023/07/02 01:22:56;;;;;;;;;;;21.20;93.00;;;;;;5115779;28;20075;-62
2023/07/02 01:25:24;;;;;;;;;;;21.30;92.70;;;;;;5115506;28;20336;-62
2023/07/02 01:27:50;;;;;;;;;;;21.20;92.90;;;;;;5115507;28;19999;-63
2023/07/02 01:30:16;;;;;;;;;;;21.10;93.00;;;;;;5115810;28;19989;-62
2023/07/02 01:32:41;;;;;;;;;;;21.10;93.40;;;;;;5115669;28;20461;-62
2023/07/02 01:35:08;;;;;;;;;;;21.00;93.70;;;;;;5115638;28;20461;-64
2023/07/02 01:37:37;;;;;;;;;;;20.90;94.10;;;;;;5115356;28;19988;-63
2023/07/02 01:40:03;;;;;;;;;;;20.80;94.50;;;;;;5115243;28;20431;-63
2023/07/02 01:42:29;;;;;;;;;;;20.80;94.30;;;;;;5115109;28;20034;-62
2023/07/02 01:44:54;;;;;;;;;;;20.80;94.30;;;;;;5115384;28;19989;-62
2023/07/02 01:47:20;;;;;;;;;;;20.70;94.70;;;;;;5114993;28;20028;-63
2023/07/02 01:49:45;;;;;;;;;;;20.80;94.60;;;;;;5115736;28;19984;-63
2023/07/02 01:52:11;;;;;;;;;;;20.80;94.50;;;;;;5115176;28;20438;-64
2023/07/02 01:54:36;;;;;;;;;;;20.80;94.40;;;;;;5115106;28;19989;-62
2023/07/02 01:57:02;;;;;;;;;;;20.90;94.70;;;;;;5114821;28;20027;-64
2023/07/02 01:59:28;;;;;;;;;;;20.90;94.70;;;;;;5115183;28;19989;-63
2023/07/02 02:01:53;;;;;;;;;;;20.90;94.60;;;;;;5114816;28;19993;-63
2023/07/02 02:04:19;;;;;;;;;;;20.90;94.60;;;;;;5114821;28;19985;-64
2023/07/02 02:06:44;;;;;;;;;;;21.00;94.60;;;;;;5114845;28;20497;-62
2023/07/02 02:09:10;;;;;;;;;;;20.90;94.90;;;;;;5114563;28;19992;-63
2023/07/02 02:11:39;;;;;;;;;;;20.70;95.20;;;;;;5114696;28;19985;-62
2023/07/02 02:14:05;;;;;;;;;;;20.70;95.50;;;;;;5114066;28;20075;-64
2023/07/02 02:16:33;;;;;;;;;;;20.70;95.70;;;;;;5114563;28;20084;-64
2023/07/02 02:18:59;;;;;;;;;;;20.70;95.60;;;;;;5114597;28;20389;-63
2023/07/02 02:21:25;;;;;;;;;;;20.60;95.60;;;;;;5114739;28;20030;-62
2023/07/02 02:23:50;;;;;;;;;;;20.50;96.00;;;;;;5114380;28;20423;-63
2023/07/02 02:26:16;;;;;;;;;;;20.50;96.30;;;;;;5114507;28;19984;-63
2023/07/02 02:28:42;;;;;;;;;;;20.60;96.40;;;;;;5114425;28;20064;-64
2023/07/02 02:31:07;;;;;;;;;;;20.70;96.60;;;;;;5114420;28;19991;-63
2023/07/02 02:33:35;;;;;;;;;;;20.80;96.30;;;;;;5114400;28;20350;-63
2023/07/02 02:36:01;;;;;;;;;;;20.90;96.00;;;;;;5114129;28;20020;-64
2023/07/02 02:38:26;;;;;;;;;;;20.90;95.70;;;;;;5114279;28;20071;-63
2023/07/02 02:40:52;;;;;;;;;;;21.00;95.90;;;;;;5114255;28;19992;-63
2023/07/02 02:43:17;;;;;;;;;;;21.00;95.70;;;;;;5114456;28;20470;-63
2023/07/02 02:45:43;;;;;;;;;;;21.00;95.60;;;;;;5113986;28;20375;-65
2023/07/02 02:48:09;;;;;;;;;;;20.90;95.50;;;;;;5114469;28;19989;-63
2023/07/02 02:50:36;;;;;;;;;;;21.00;95.40;;;;;;5114290;28;20087;-62
2023/07/02 02:53:01;;;;;;;;;;;21.00;95.40;;;;;;5114194;28;20487;-62
2023/07/02 02:55:28;;;;;;;;;;;21.00;95.00;;;;;;5114171;28;20009;-64
2023/07/02 02:57:53;;;;;;;;;;;21.00;95.10;;;;;;5114049;28;20088;-62
2023/07/02 03:00:19;;;;;;;;;;;21.00;95.50;;;;;;5114427;28;20422;-64
2023/07/02 03:02:44;;;;;;;;;;;21.00;95.50;;;;;;5114038;28;20346;-65
2023/07/02 03:05:10;;;;;;;;;;;21.00;95.90;;;;;;5114150;28;20396;-63
2023/07/02 03:07:35;;;;;;;;;;;20.90;96.10;;;;;;5113769;28;20064;-64
2023/07/02 03:10:01;;;;;;;;;;;21.00;96.20;;;;;;5114270;28;20083;-63
2023/07/02 03:12:27;;;;;;;;;;;21.00;96.30;;;;;;5113814;28;19996;-64
2023/07/02 03:14:54;;;;;;;;;;;21.00;96.40;;;;;;5114140;28;19988;-64
2023/07/02 03:17:20;;;;;;;;;;;21.00;96.20;;;;;;5114007;28;20459;-63
2023/07/02 03:19:46;;;;;;;;;;;21.10;96.50;;;;;;5113939;28;20029;-63
2023/07/02 03:22:12;;;;;;;;;;;21.10;96.00;;;;;;5113631;28;19992;-63
2023/07/02 03:24:37;;;;;;;;;;;21.00;95.90;;;;;;5114395;28;19985;-62
2023/07/02 03:27:03;;;;;;;;;;;21.10;96.30;;;;;;5117938;28;19992;-64
2023/07/02 03:29:29;;;;;;;;;;;21.10;96.30;;;;;;5117804;28;19991;-64
2023/07/02 03:31:54;;;;;;;;;;;21.10;96.30;;;;;;5117987;28;19985;-64
2023/07/02 03:34:22;;;;;;;;;;;21.10;96.40;;;;;;5118023;28;19992;-62
2023/07/02 03:36:47;;;;;;;;;;;21.10;96.70;;;;;;5117494;28;20009;-63
2023/07/02 03:39:13;;;;;;;;;;;21.20;96.40;;;;;;5117920;28;20397;-64
2023/07/02 03:41:39;;;;;;;;;;;21.20;96.80;;;;;;5117633;28;19985;-64
2023/07/02 03:44:04;;;;;;;;;;;21.20;95.40;;;;;;5117668;28;19985;-63
2023/07/02 03:46:31;;;;;;;;;;;21.20;96.10;;;;;;5117380;28;20050;-62
2023/07/02 03:48:56;;;;;;;;;;;21.20;95.30;;;;;;5117799;28;20366;-63
2023/07/02 03:51:22;;;;;;;;;;;21.20;94.90;;;;;;5117342;28;19985;-64
2023/07/02 03:53:47;;;;;;;;;;;21.20;94.50;;;;;;5117367;28;19985;-65
2023/07/02 03:56:13;;;;;;;;;;;21.20;94.40;;;;;;5117149;28;20041;-63
2023/07/02 03:58:42;;;;;;;;;;;21.30;93.80;;;;;;5117425;28;20034;-63
2023/07/02 04:01:07;;;;;;;;;;;21.30;94.00;;;;;;5117504;28;19996;-64
2023/07/02 04:03:33;;;;;;;;;;;21.40;94.00;;;;;;5117462;28;19989;-63
2023/07/02 04:05:58;;;;;;;;;;;21.40;93.80;;;;;;5116876;28;19993;-62
2023/07/02 04:08:24;;;;;;;;;;;21.50;93.80;;;;;;5117063;28;20417;-64
2023/07/02 04:10:50;;;;;;;;;;;21.50;93.70;;;;;;5117316;28;20001;-63
2023/07/02 04:13:16;;;;;;;;;;;21.60;94.30;;;;;;5117131;28;19984;-63
2023/07/02 04:15:41;;;;;;;;;;;21.60;94.00;;;;;;5116909;28;20060;-62
2023/07/02 04:18:07;;;;;;;;;;;21.70;94.30;;;;;;5116878;28;20007;-63
2023/07/02 04:20:33;;;;;;;;;;;21.70;93.60;;;;;;5116747;28;19988;-64
2023/07/02 04:22:58;;;;;;;;;;;21.70;94.00;;;;;;5117110;28;19995;-64
2023/07/02 04:25:24;;;;;;;;;;;21.80;94.30;;;;;;5116652;28;20053;-64
2023/07/02 04:27:50;;;;;;;;;;;21.80;94.10;;;;;;5116870;28;19992;-63
2023/07/02 04:30:15;;;;;;;;;;;21.80;93.30;;;;;;5116813;28;19992;-63
2023/07/02 04:32:41;;;;;;;;;;;21.90;92.80;;;;;;5116610;28;19985;-62
2023/07/02 04:35:07;;;;;;;;;;;21.90;92.60;;;;;;5116316;28;20037;-63
2023/07/02 04:37:33;;;;;;;;;;;21.90;92.50;;;;;;5116008;28;19984;-62
2023/07/02 04:39:58;;;;;;;;;;;21.90;92.70;;;;;;5116744;28;19995;-64
2023/07/02 04:42:31;;;;;;;;;;;22.00;92.60;;;;;;5116422;28;20003;-62
2023/07/02 04:45:02;;;;;;;;;;;22.00;92.70;;;;;;5116787;28;20098;-63
2023/07/02 04:47:28;;;;;;;;;;;22.00;92.40;;;;;;5116324;28;20057;-62
2023/07/02 04:49:54;;;;;;;;;;;22.00;92.10;;;;;;5116173;28;20039;-63
2023/07/02 04:52:19;;;;;;;;;;;22.00;91.90;;;;;;5116235;28;19996;-63
2023/07/02 04:54:45;;;;;;;;;;;22.00;92.10;;;;;;5116253;28;19985;-63
2023/07/02 04:57:10;;;;;;;;;;;22.00;92.50;;;;;;5116019;28;20017;-64
2023/07/02 04:59:36;;;;;;;;;;;22.00;92.40;;;;;;5116371;28;20036;-62
2023/07/02 05:02:02;;;;;;;;;;;22.00;92.00;;;;;;5116313;28;19997;-64
2023/07/02 05:04:27;;;;;;;;;;;22.00;91.60;;;;;;5115871;28;19985;-64
2023/07/02 05:06:53;;;;;;;;;;;22.00;91.50;;;;;;5116042;28;19985;-64
2023/07/02 05:09:18;;;;;;;;;;;22.00;91.70;;;;;;5115979;28;20049;-62
2023/07/02 05:11:44;;;;;;;;;;;22.00;92.10;;;;;;5116036;28;20057;-63
2023/07/02 05:14:09;;;;;;;;;;;22.00;91.70;;;;;;5116176;28;19993;-62
2023/07/02 05:16:35;;;;;;;;;;;22.00;91.60;;;;;;5115825;28;20051;-64
2023/07/02 05:19:00;;;;;;;;;;;22.00;91.80;;;;;;5115493;28;19985;-62
2023/07/02 05:21:26;;;;;;;;;;;22.00;91.50;;;;;;5115745;28;19985;-63
2023/07/02 05:23:52;;;;;;;;;;;22.00;90.80;;;;;;5115677;28;19984;-63
2023/07/02 05:26:17;;;;;;;;;;;22.00;90.30;;;;;;5115810;28;19995;-64
2023/07/02 05:28:44;;;;;;;;;;;22.00;90.50;;;;;;5115647;28;19991;-63
2023/07/02 05:31:09;;;;;;;;;;;22.10;88.90;;;;;;5115556;28;19985;-62
2023/07/02 05:33:35;;;;;;;;;;;22.10;88.40;;;;;;5115223;28;19996;-64
2023/07/02 05:36:01;;;;;;;;;;;22.10;88.10;;;;;;5097002;28;20013;-64
2023/07/02 05:38:26;;;;;;;;;;;22.20;90.20;;;;;;5115401;28;19985;-63
2023/07/02 05:40:52;;;;;;;;;;;22.10;89.50;;;;;;5115381;28;19989;-62
2023/07/02 05:43:18;;;;;;;;;;;22.10;89.20;;;;;;5115103;28;20007;-63
2023/07/02 05:45:43;;;;;;;;;;;22.20;88.20;;;;;;5115018;28;20115;-63
2023/07/02 05:48:09;;;;;;;;;;;22.20;88.50;;;;;;5114345;28;20011;-64
2023/07/02 05:50:35;;;;;;;;;;;22.30;87.90;;;;;;5114817;28;19991;-63
2023/07/02 05:53:00;;;;;;;;;;;22.40;87.80;;;;;;5115347;28;20043;-63
2023/07/02 05:55:26;;;;;;;;;;;22.50;88.30;;;;;;5115171;28;20015;-62
2023/07/02 05:57:51;;;;;;;;;;;22.50;87.80;;;;;;5114876;28;20359;-62
2023/07/02 06:00:17;;;;;;;;;;;22.50;88.10;;;;;;5115133;28;19989;-64
2023/07/02 06:02:46;;;;;;;;;;;22.60;87.00;;;;;;5114971;28;20020;-63
2023/07/02 06:05:12;;;;;;;;;;;22.60;89.60;;;;;;5114856;28;19991;-62
2023/07/02 06:07:37;;;;;;;;;;;22.60;89.30;;;;;;5114814;28;19988;-64
2023/07/02 06:10:03;;;;;;;;;;;22.70;89.30;;;;;;5114872;28;19985;-63
2023/07/02 06:12:28;;;;;;;;;;;22.70;89.90;;;;;;5114852;28;19993;-63
2023/07/02 06:14:54;;;;;;;;;;;22.70;87.80;;;;;;5114584;28;20130;-62
2023/07/02 06:17:21;;;;;;;;;;;23.00;87.00;;;;;;5114453;28;20435;-64
2023/07/02 06:19:47;;;;;;;;;;;23.10;87.30;;;;;;5114614;28;20032;-64
2023/07/02 06:22:12;;;;;;;;;;;23.30;87.70;;;;;;5114497;28;20034;-62
2023/07/02 06:24:38;;;;;;;;;;;23.40;84.90;;;;;;5114765;28;19993;-64
2023/07/02 06:27:03;;;;;;;;;;;23.40;85.40;;;;;;5114598;28;19991;-62
2023/07/02 06:29:29;;;;;;;;;;;23.50;84.70;;;;;;5114426;28;20504;-62
2023/07/02 06:31:55;;;;;;;;;;;23.60;85.60;;;;;;5114257;28;20450;-63
2023/07/02 06:34:20;;;;;;;;;;;23.80;83.50;;;;;;5114427;28;20363;-62
2023/07/02 06:36:46;;;;;;;;;;;24.00;82.90;;;;;;5114313;28;20447;-63
2023/07/02 06:39:11;;;;;;;;;;;24.00;83.20;;;;;;5114282;28;20019;-62
2023/07/02 06:41:37;;;;;;;;;;;24.00;83.00;;;;;;5114297;28;20079;-64
2023/07/02 06:44:03;;;;;;;;;;;23.90;83.20;;;;;;5114580;28;20041;-64
2023/07/02 06:46:28;;;;;;;;;;;23.80;84.20;;;;;;5113821;28;20025;-64
2023/07/02 06:48:55;;;;;;;;;;;23.80;84.90;;;;;;5114272;28;19985;-64
2023/07/02 06:51:21;;;;;;;;;;;23.90;84.10;;;;;;5114495;28;20366;-62
2023/07/02 06:53:47;;;;;;;;;;;23.90;83.10;;;;;;5114076;28;19995;-62
2023/07/02 06:56:12;;;;;;;;;;;23.80;83.10;;;;;;5114009;28;20016;-64
2023/07/02 06:58:47;;;;;;;;;;;23.80;83.90;;;;;;5114156;28;20075;-63
2023/07/02 07:01:12;;;;;;;;;;;23.80;85.60;;;;;;5119543;28;20392;-63
2023/07/02 07:03:38;;;;;;;;;;;23.70;85.50;;;;;;5120925;28;19992;-64
2023/07/02 07:06:04;;;;;;;;;;;23.60;84.60;;;;;;5120836;28;19995;-63
2023/07/02 07:08:29;;;;;;;;;;;23.60;84.60;;;;;;5120765;28;20057;-62
2023/07/02 07:10:55;;;;;;;;;;;23.80;84.70;;;;;;5120924;28;19991;-63
2023/07/02 07:13:20;;;;;;;;;;;24.00;84.20;;;;;;5120637;28;20323;-63
2023/07/02 07:15:46;;;;;;;;;;;24.30;84.30;;;;;;5120532;28;20009;-62
2023/07/02 07:18:12;;;;;;;;;;;24.40;83.30;;;;;;5120854;28;20530;-62
2023/07/02 07:20:39;;;;;;;;;;;24.80;82.60;;;;;;5120802;28;20493;-62
2023/07/02 07:23:05;;;;;;;;;;;25.30;80.20;;;;;;5121004;28;20355;-64
2023/07/02 07:25:30;;;;;;;;;;;25.80;78.70;;;;;;5120625;28;20514;-64
2023/07/02 07:27:56;;;;;;;;;;;26.00;78.90;;;;;;5102419;28;20122;-63
2023/07/02 07:30:24;;;;;;;;;;;26.20;76.00;;;;;;5120456;28;19985;-62
2023/07/02 07:32:50;;;;;;;;;;;26.30;75.80;;;;;;5120834;28;19989;-64
2023/07/02 07:35:16;;;;;;;;;;;26.30;75.60;;;;;;5121090;28;20324;-63
2023/07/02 07:37:41;;;;;;;;;;;26.20;76.80;;;;;;5120641;28;19992;-64
2023/07/02 07:40:07;;;;;;;;;;;26.20;76.80;;;;;;5120563;28;19991;-62
2023/07/02 07:42:33;;;;;;;;;;;26.00;75.80;;;;;;5120806;28;19995;-62
2023/07/02 07:44:58;;;;;;;;;;;25.80;76.50;;;;;;5120300;28;19984;-62
2023/07/02 07:47:24;;;;;;;;;;;25.40;76.50;;;;;;5120252;28;20020;-62
2023/07/02 07:49:50;;;;;;;;;;;25.30;77.50;;;;;;5120525;28;19989;-64
2023/07/02 07:52:15;;;;;;;;;;;25.60;78.60;;;;;;5120557;28;19984;-62
2023/07/02 07:54:41;;;;;;;;;;;25.70;79.00;;;;;;5120358;28;19988;-64
2023/07/02 07:57:06;;;;;;;;;;;26.10;75.70;;;;;;5120238;28;20021;-65
2023/07/02 07:59:32;;;;;;;;;;;26.80;72.40;;;;;;5120231;28;19985;-62
2023/07/02 08:01:58;;;;;;;;;;;26.70;73.90;;;;;;5120408;28;20454;-64
2023/07/02 08:04:23;;;;;;;;;;;26.40;74.50;;;;;;5120254;28;20008;-63
2023/07/02 08:06:49;;;;;;;;;;;26.20;74.10;;;;;;5120274;28;20348;-64
2023/07/02 08:09:14;;;;;;;;;;;25.90;75.20;;;;;;5120360;28;20017;-64
2023/07/02 08:11:40;;;;;;;;;;;26.20;76.70;;;;;;5117577;28;20048;-64
2023/07/02 08:14:05;;;;;;;;;;;26.40;76.90;;;;;;5117028;28;19985;-63
2023/07/02 08:16:31;;;;;;;;;;;26.40;75.40;;;;;;5117234;28;20012;-64
2023/07/02 08:18:56;;;;;;;;;;;26.50;74.40;;;;;;5116873;28;20016;-64
2023/07/02 08:21:22;;;;;;;;;;;26.40;75.90;;;;;;5117054;28;19984;-63
2023/07/02 08:23:47;;;;;;;;;;;26.70;75.10;;;;;;5117149;28;19989;-64
2023/07/02 08:26:14;;;;;;;;;;;27.50;73.90;;;;;;5116602;28;20327;-63
2023/07/02 08:28:39;;;;;;;;;;;28.20;71.90;;;;;;5117063;28;19995;-64
2023/07/02 08:31:05;;;;;;;;;;;28.10;69.10;;;;;;5116851;28;20079;-62
2023/07/02 08:33:31;;;;;;;;;;;28.70;70.70;;;;;;5116855;28;20400;-63
2023/07/02 08:35:57;;;;;;;;;;;30.80;70.50;;;;;;5116577;28;20008;-63
2023/07/02 08:38:23;;;;;;;;;;;32.30;61.70;;;;;;5116741;28;20529;-62
2023/07/02 08:40:51;;;;;;;;;;;32.20;58.90;;;;;;5116452;28;20031;-62
2023/07/02 08:43:17;;;;;;;;;;;32.70;59.40;;;;;;5116434;28;19985;-64
2023/07/02 08:45:43;;;;;;;;;;;32.30;58.00;;;;;;5116631;28;20406;-64
2023/07/02 08:48:10;;;;;;;;;;;31.20;58.40;;;;;;5116427;28;20032;-63
2023/07/02 08:50:35;;;;;;;;;;;30.60;63.60;;;;;;5116584;28;19988;-63
2023/07/02 08:53:01;;;;;;;;;;;31.80;63.60;;;;;;5116353;28;20363;-64
2023/07/02 08:55:29;;;;;;;;;;;32.60;56.60;;;;;;5116099;28;19985;-64
2023/07/02 08:57:59;;;;;;;;;;;32.50;55.90;;;;;;5116231;28;20439;-64
2023/07/02 09:00:25;;;;;;;;;;;31.80;57.40;;;;;;5116276;28;20042;-62
2023/07/02 09:02:50;;;;;;;;;;;30.80;58.00;;;;;;5116093;28;20031;-63
2023/07/02 09:05:16;;;;;;;;;;;30.50;59.00;;;;;;5116048;28;19985;-62
2023/07/02 09:07:45;;;;;;;;;;;29.30;61.10;;;;;;5116015;28;20514;-64
2023/07/02 09:10:11;;;;;;;;;;;28.60;63.50;;;;;;5115853;28;19985;-63
2023/07/02 09:12:38;;;;;;;;;;;28.30;65.40;;;;;;5116120;28;20069;-63
2023/07/02 09:15:06;;;;;;;;;;;29.70;67.20;;;;;;5116004;28;19992;-64
2023/07/02 09:17:37;;;;;;;;;;;30.50;65.40;;;;;;5115748;28;20008;-64
2023/07/02 09:20:06;;;;;;;;;;;30.00;62.80;;;;;;5115994;28;20354;-63
2023/07/02 09:22:32;;;;;;;;;;;29.20;63.00;;;;;;5115668;28;19988;-64
2023/07/02 09:24:59;;;;;;;;;;;28.70;65.30;;;;;;5115554;28;20336;-62
2023/07/02 09:27:35;;;;;;;;;;;28.80;67.10;;;;;;5115808;28;19996;-63
2023/07/02 09:30:05;;;;;;;;;;;28.60;64.00;;;;;;5115587;28;19988;-63
2023/07/02 09:32:32;;;;;;;;;;;28.70;65.30;;;;;;5115507;28;19988;-63
2023/07/02 09:34:58;;;;;;;;;;;28.80;63.70;;;;;;5115442;28;20451;-63
2023/07/02 09:37:24;;;;;;;;;;;29.00;65.20;;;;;;5115446;28;20023;-62
2023/07/02 09:39:50;;;;;;;;;;;28.90;62.70;;;;;;5115276;28;19985;-64
2023/07/02 09:42:16;;;;;;;;;;;28.60;65.00;;;;;;5115295;28;19992;-62
2023/07/02 09:44:42;;;;;;;;;;;28.40;63.90;;;;;;5115383;28;20037;-65
2023/07/02 09:47:10;;;;;;;;;;;28.20;63.80;;;;;;5115082;28;20024;-63
2023/07/02 09:49:36;;;;;;;;;;;28.20;65.40;;;;;;5115157;28;19988;-62
2023/07/02 09:52:05;;;;;;;;;;;28.20;65.30;;;;;;5115158;28;19984;-63
2023/07/02 09:54:31;;;;;;;;;;;28.40;64.50;;;;;;5114820;28;19996;-64
2023/07/02 09:56:58;;;;;;;;;;;28.70;64.50;;;;;;5114838;28;20016;-64
2023/07/02 09:59:24;;;;;;;;;;;28.90;63.70;;;;;;5115272;28;20024;-64
2023/07/02 10:01:49;;;;;;;;;;;29.00;63.40;;;;;;5096710;28;20033;-63
2023/07/02 10:04:17;;;;;;;;;;;29.50;66.00;;;;;;5114884;28;20490;-64
2023/07/02 10:06:50;;;;;;;;;;;29.70;65.60;;;;;;5114971;28;20038;-62
2023/07/02 10:09:16;;;;;;;;;;;29.80;64.40;;;;;;5114677;28;19985;-62
2023/07/02 10:11:42;;;;;;;;;;;30.30;62.90;;;;;;5114998;28;19996;-62
2023/07/02 10:14:07;;;;;;;;;;;30.80;65.70;;;;;;5114748;28;19984;-65
2023/07/02 10:16:33;;;;;;;;;;;30.80;61.30;;;;;;5114569;28;20059;-63
2023/07/02 10:19:09;;;;;;;;;;;30.70;61.00;;;;;;5114784;28;19995;-62
2023/07/02 10:21:35;;;;;;;;;;;30.20;60.90;;;;;;5114906;28;20041;-63
2023/07/02 10:24:10;;;;;;;;;;;30.80;64.00;;;;;;5114669;28;19992;-64
2023/07/02 10:26:36;;;;;;;;;;;30.80;60.10;;;;;;5114574;28;19984;-62
2023/07/02 10:29:02;;;;;;;;;;;30.70;61.60;;;;;;5114608;28;20042;-63
2023/07/02 10:31:28;;;;;;;;;;;31.10;62.40;;;;;;5114715;28;19992;-62
2023/07/02 10:33:53;;;;;;;;;;;31.70;64.60;;;;;;5114300;28;19996;-64
2023/07/02 10:36:25;;;;;;;;;;;31.40;60.30;;;;;;5113896;28;20359;-62
2023/07/02 10:38:51;;;;;;;;;;;31.40;59.10;;;;;;5114072;28;20462;-64
2023/07/02 10:41:24;;;;;;;;;;;31.10;59.20;;;;;;5114529;28;19992;-62
2023/07/02 10:43:50;;;;;;;;;;;31.70;62.70;;;;;;5114297;28;20053;-62
2023/07/02 10:46:19;;;;;;;;;;;32.00;57.20;;;;;;5113966;28;20390;-62
2023/07/02 10:48:54;;;;;;;;;;;31.80;56.70;;;;;;5114528;28;20049;-62
2023/07/02 10:51:21;;;;;;;;;;;31.80;61.40;;;;;;5114082;28;19988;-63
2023/07/02 10:53:56;;;;;;;;;;;31.80;61.60;;;;;;5114118;28;20125;-62
2023/07/02 10:56:21;;;;;;;;;;;31.80;58.50;;;;;;5114305;28;20069;-63
2023/07/02 10:58:51;;;;;;;;;;;31.60;58.40;;;;;;5114104;28;20388;-63
2023/07/02 11:01:21;;;;;;;;;;;31.30;61.40;;;;;;5114225;28;19988;-62
2023/07/02 11:03:55;;;;;;;;;;;31.20;60.30;;;;;;5114111;28;19988;-63
2023/07/02 11:06:20;;;;;;;;;;;30.80;60.80;;;;;;5113777;28;20340;-63
2023/07/02 11:08:46;;;;;;;;;;;30.40;59.90;;;;;;5114050;28;20052;-64
2023/07/02 11:11:11;;;;;;;;;;;30.30;59.60;;;;;;5113984;28;19985;-63
2023/07/02 11:13:46;;;;;;;;;;;30.00;61.50;;;;;;5113951;28;20439;-62
2023/07/02 11:16:26;;;;;;;;;;;29.70;61.20;;;;;;5113916;28;20454;-64
2023/07/02 11:18:52;;;;;;;;;;;29.80;63.60;;;;;;5113906;28;20431;-63
2023/07/02 11:21:18;;;;;;;;;;;30.40;66.30;;;;;;5113988;28;19996;-62
2023/07/02 11:23:43;;;;;;;;;;;30.20;62.60;;;;;;5113977;28;19989;-63
2023/07/02 11:26:09;;;;;;;;;;;30.10;64.30;;;;;;5114102;28;19989;-63
2023/07/02 11:28:34;;;;;;;;;;;30.10;61.00;;;;;;5113809;28;20471;-62
2023/07/02 11:31:03;;;;;;;;;;;30.40;61.80;;;;;;5113862;28;19988;-64
2023/07/02 11:33:47;;;;;;;;;;;30.50;61.80;;;;;;5113912;28;19989;-63
2023/07/02 11:36:20;;;;;;;;;;;30.30;60.90;;;;;;5113640;28;20008;-63
2023/07/02 11:38:45;;;;;;;;;;;30.10;62.70;;;;;;5113797;28;20434;-65
2023/07/02 11:41:11;;;;;;;;;;;29.90;61.50;;;;;;5113827;28;19992;-65
2023/07/02 11:43:38;;;;;;;;;;;29.90;63.30;;;;;;5114014;28;19988;-65
2023/07/02 11:46:04;;;;;;;;;;;30.40;65.70;;;;;;5113421;28;20395;-63
2023/07/02 11:48:29;;;;;;;;;;;30.50;63.20;;;;;;5116975;28;20154;-64
2023/07/02 11:50:55;;;;;;;;;;;30.30;60.70;;;;;;5117426;28;20051;-64
2023/07/02 11:53:20;;;;;;;;;;;29.90;62.00;;;;;;5117401;28;20523;-63
2023/07/02 11:55:46;;;;;;;;;;;29.50;63.00;;;;;;5117151;28;20012;-63
2023/07/02 11:58:11;;;;;;;;;;;29.10;65.10;;;;;;5117588;28;19996;-63
2023/07/02 12:00:37;;;;;;;;;;;28.90;67.10;;;;;;5117372;28;20439;-65
2023/07/02 12:03:03;;;;;;;;;;;28.50;66.70;;;;;;5117267;28;19988;-63
2023/07/02 12:05:28;;;;;;;;;;;28.20;66.90;;;;;;5117166;28;19989;-65
2023/07/02 12:07:54;;;;;;;;;;;28.20;66.70;;;;;;5117251;28;20037;-65
2023/07/02 12:10:19;;;;;;;;;;;28.30;68.00;;;;;;5117167;28;20072;-63
2023/07/02 12:12:45;;;;;;;;;;;28.40;67.10;;;;;;5116993;28;19992;-64
2023/07/02 12:15:10;;;;;;;;;;;28.60;63.40;;;;;;5117191;28;19985;-63
2023/07/02 12:17:36;;;;;;;;;;;28.60;62.40;;;;;;5116984;28;20013;-65
2023/07/02 12:20:01;;;;;;;;;;;28.80;61.50;;;;;;5098474;28;19988;-64
2023/07/02 12:22:27;;;;;;;;;;;29.00;61.20;;;;;;5116962;28;19988;-62
2023/07/02 12:24:56;;;;;;;;;;;29.60;59.00;;;;;;5116996;28;19988;-65
2023/07/02 12:27:21;;;;;;;;;;;30.00;60.90;;;;;;5117054;28;20327;-63
2023/07/02 12:29:48;;;;;;;;;;;30.30;58.80;;;;;;5116806;28;20055;-64
2023/07/02 12:32:14;;;;;;;;;;;30.50;60.80;;;;;;5117034;28;19993;-63
2023/07/02 12:34:39;;;;;;;;;;;30.70;59.20;;;;;;5116453;28;20408;-61
2023/07/02 12:37:05;;;;;;;;;;;31.10;60.90;;;;;;5116869;28;20012;-64
2023/07/02 12:39:31;;;;;;;;;;;31.20;58.30;;;;;;5116710;28;19993;-63
2023/07/02 12:41:56;;;;;;;;;;;31.10;58.10;;;;;;5116564;28;20041;-63
2023/07/02 12:44:22;;;;;;;;;;;30.70;57.80;;;;;;5116670;28;19989;-62
2023/07/02 12:46:47;;;;;;;;;;;30.40;59.30;;;;;;5116238;28;20033;-63
2023/07/02 12:49:13;;;;;;;;;;;30.20;58.00;;;;;;5116306;28;19984;-62
2023/07/02 12:51:40;;;;;;;;;;;30.20;57.70;;;;;;5115659;28;20422;-63
2023/07/02 12:54:06;;;;;;;;;;;30.60;60.50;;;;;;5116245;28;19995;-62
2023/07/02 12:56:31;;;;;;;;;;;31.20;59.40;;;;;;5116148;28;20016;-64
2023/07/02 12:58:57;;;;;;;;;;;31.70;59.90;;;;;;5115655;28;19988;-62
2023/07/02 13:01:23;;;;;;;;;;;31.70;60.90;;;;;;5116147;28;20067;-64
2023/07/02 13:03:49;;;;;;;;;;;31.90;65.50;;;;;;5115991;28;19985;-62
2023/07/02 13:06:15;;;;;;;;;;;31.90;57.90;;;;;;5116028;28;20439;-62
2023/07/02 13:08:41;;;;;;;;;;;31.80;55.30;;;;;;5116127;28;20010;-64
2023/07/02 13:11:08;;;;;;;;;;;31.50;55.80;;;;;;5116096;28;20076;-64
2023/07/02 13:13:35;;;;;;;;;;;31.20;57.60;;;;;;5115873;28;19985;-63
2023/07/02 13:16:01;;;;;;;;;;;31.10;60.00;;;;;;5115967;28;20455;-64
2023/07/02 13:18:27;;;;;;;;;;;30.70;60.80;;;;;;5115678;28;20003;-62
2023/07/02 13:20:52;;;;;;;;;;;30.30;62.00;;;;;;5116080;28;19989;-64
2023/07/02 13:23:18;;;;;;;;;;;29.90;64.40;;;;;;5115579;28;20400;-62
2023/07/02 13:25:43;;;;;;;;;;;29.80;63.40;;;;;;5115808;28;19989;-64
2023/07/02 13:28:09;;;;;;;;;;;29.80;64.20;;;;;;5115789;28;20020;-63
2023/07/02 13:30:34;;;;;;;;;;;29.70;65.00;;;;;;5115490;28;19985;-63
2023/07/02 13:33:00;;;;;;;;;;;29.50;64.30;;;;;;5115397;28;20042;-62
2023/07/02 13:35:26;;;;;;;;;;;29.60;64.10;;;;;;5115468;28;20050;-64
2023/07/02 13:37:51;;;;;;;;;;;29.60;62.60;;;;;;5115415;28;19989;-62
2023/07/02 13:40:17;;;;;;;;;;;30.10;62.80;;;;;;5115486;28;19992;-63
2023/07/02 13:42:43;;;;;;;;;;;30.60;61.10;;;;;;5115452;28;19984;-64
2023/07/02 13:45:09;;;;;;;;;;;30.90;59.60;;;;;;5115300;28;20033;-63
2023/07/02 13:47:35;;;;;;;;;;;31.20;59.50;;;;;;5115213;28;20011;-64
2023/07/02 13:50:01;;;;;;;;;;;31.60;59.60;;;;;;5115167;28;19988;-61
2023/07/02 13:52:26;;;;;;;;;;;32.00;55.70;;;;;;5115276;28;20484;-62
2023/07/02 13:54:52;;;;;;;;;;;32.30;55.80;;;;;;5115066;28;19992;-62
2023/07/02 13:57:17;;;;;;;;;;;32.30;56.90;;;;;;5115062;28;20012;-64
2023/07/02 13:59:43;;;;;;;;;;;32.30;55.70;;;;;;5114902;28;19992;-63
2023/07/02 14:02:08;;;;;;;;;;;31.90;54.50;;;;;;5114908;28;19985;-61
2023/07/02 14:04:34;;;;;;;;;;;31.20;56.30;;;;;;5114929;28;20435;-62
2023/07/02 14:06:59;;;;;;;;;;;30.70;58.20;;;;;;5114877;28;19989;-63
2023/07/02 14:09:25;;;;;;;;;;;30.40;58.00;;;;;;5114010;28;20438;-63
2023/07/02 14:11:50;;;;;;;;;;;29.80;59.10;;;;;;5114961;28;19985;-62